createdAt,value
2023-05-01T00:01:08.500Z,91.60
2023-05-01T00:03:37.973Z,91.20
2023-05-01T00:06:08.281Z,91.30
2023-05-01T00:08:37.540Z,91.40
2023-05-01T00:11:10.071Z,91.40
2023-05-01T00:13:40.832Z,91.10
2023-05-01T00:16:10.989Z,91.00
2023-05-01T00:18:40.531Z,90.90
2023-05-01T00:21:09.836Z,90.80
2023-05-01T00:23:39.085Z,90.80
2023-05-01T00:26:08.893Z,90.90
2023-05-01T00:28:40.954Z,91.00
2023-05-01T00:31:10.776Z,91.10
2023-05-01T00:33:41.198Z,91.00
2023-05-01T00:36:12.032Z,91.20
2023-05-01T00:38:41.943Z,91.00
2023-05-01T00:41:11.865Z,91.10
2023-05-01T00:43:44.022Z,90.90
2023-05-01T00:46:14.176Z,90.90
2023-05-01T00:48:44.468Z,90.80
2023-05-01T00:51:16.222Z,90.90
2023-05-01T00:53:46.856Z,91.00
2023-05-01T00:56:17.702Z,90.90
2023-05-01T00:58:52.947Z,90.90
2023-05-01T01:01:23.693Z,91.00
2023-05-01T01:03:55.009Z,91.10
2023-05-01T01:06:35.690Z,90.90
2023-05-01T01:09:19.437Z,90.80
2023-05-01T01:12:00.114Z,90.90
2023-05-01T01:14:37.277Z,90.40
2023-05-01T01:17:13.919Z,90.50
2023-05-01T01:20:16.625Z,90.60
2023-05-01T01:22:52.984Z,90.40
2023-05-01T01:26:10.837Z,90.00
2023-05-01T01:29:18.016Z,89.90
2023-05-01T01:32:31.978Z,90.00
2023-05-01T01:35:21.634Z,89.30
2023-05-01T01:37:59.298Z,89.10
2023-05-01T01:40:37.333Z,88.50
2023-05-01T01:43:10.527Z,88.00
2023-05-01T01:45:43.410Z,87.90
2023-05-01T01:48:15.717Z,87.70
2023-05-01T01:50:48.927Z,87.10
2023-05-01T01:53:20.949Z,87.70
2023-05-01T01:55:52.728Z,87.90
2023-05-01T01:58:26.668Z,88.10
2023-05-01T02:00:59.175Z,88.30
2023-05-01T02:03:31.612Z,88.80
2023-05-01T02:06:05.609Z,89.20
2023-05-01T02:08:38.234Z,88.40
2023-05-01T02:11:09.381Z,88.90
2023-05-01T02:13:43.197Z,88.30
2023-05-01T02:16:15.282Z,88.30
2023-05-01T02:18:46.727Z,88.50
2023-05-01T02:21:19.290Z,89.20
2023-05-01T02:23:49.509Z,88.70
2023-05-01T02:26:23.077Z,88.90
2023-05-01T02:28:53.434Z,88.90
2023-05-01T02:31:24.211Z,88.50
2023-05-01T02:33:54.687Z,88.70
2023-05-01T02:36:28.402Z,89.00
2023-05-01T02:38:59.030Z,88.20
2023-05-01T02:41:30.368Z,88.90
2023-05-01T02:44:05.651Z,88.10
2023-05-01T02:46:39.584Z,87.70
2023-05-01T02:49:10.364Z,87.50
2023-05-01T02:51:43.201Z,88.20
2023-05-01T02:54:14.601Z,87.90
2023-05-01T02:56:45.834Z,87.40
2023-05-01T02:59:35.819Z,87.70
2023-05-01T03:02:06.651Z,87.80
2023-05-01T03:04:37.303Z,87.50
2023-05-01T03:07:09.855Z,86.30
2023-05-01T03:09:42.905Z,85.40
2023-05-01T03:12:12.978Z,84.30
2023-05-01T03:14:43.390Z,83.80
2023-05-01T03:17:13.919Z,83.10
2023-05-01T03:19:44.141Z,82.70
2023-05-01T03:22:15.996Z,82.60
2023-05-01T03:24:46.131Z,83.30
2023-05-01T03:27:16.664Z,83.20
2023-05-01T03:29:47.789Z,83.30
2023-05-01T03:32:18.629Z,83.70
2023-05-01T03:34:51.332Z,84.90
2023-05-01T03:37:26.550Z,84.10
2023-05-01T03:39:57.047Z,85.30
2023-05-01T03:42:46.862Z,86.30
2023-05-01T03:45:23.314Z,86.80
2023-05-01T03:47:54.119Z,87.40
2023-05-01T03:50:24.387Z,86.10
2023-05-01T03:52:57.154Z,87.10
2023-05-01T03:55:27.389Z,86.40
2023-05-01T03:57:57.702Z,86.00
2023-05-01T04:00:28.842Z,86.40
2023-05-01T04:02:59.237Z,85.90
2023-05-01T04:05:29.614Z,86.20
2023-05-01T04:08:06.883Z,86.20
2023-05-01T04:10:37.407Z,86.40
2023-05-01T04:13:07.949Z,86.10
2023-05-01T04:15:39.164Z,85.10
2023-05-01T04:18:09.436Z,86.20
2023-05-01T04:20:40.877Z,87.20
2023-05-01T04:23:13.241Z,87.50
2023-05-01T04:25:43.564Z,87.50
2023-05-01T04:28:17.621Z,88.00
2023-05-01T04:30:48.423Z,85.70
2023-05-01T04:33:18.723Z,85.70
2023-05-01T04:35:49.481Z,85.20
2023-05-01T04:38:21.839Z,85.40
2023-05-01T04:40:58.296Z,86.60
2023-05-01T04:43:28.509Z,85.80
2023-05-01T04:45:58.746Z,86.20
2023-05-01T04:48:29.067Z,86.60
2023-05-01T04:50:59.594Z,86.60
2023-05-01T04:53:34.667Z,86.70
2023-05-01T04:56:06.399Z,85.60
2023-05-01T04:58:36.805Z,86.60
2023-05-01T05:01:15.772Z,85.30
2023-05-01T05:03:48.843Z,85.00
2023-05-01T05:06:20.514Z,84.70
2023-05-01T05:08:52.777Z,84.70
2023-05-01T05:11:23.588Z,83.10
2023-05-01T05:14:17.472Z,83.00
2023-05-01T05:16:48.961Z,82.50
2023-05-01T05:19:19.428Z,83.50
2023-05-01T05:21:50.272Z,82.40
2023-05-01T05:24:22.334Z,83.70
2023-05-01T05:26:52.497Z,82.90
2023-05-01T05:29:22.892Z,83.70
2023-05-01T05:31:53.892Z,84.40
2023-05-01T05:34:23.843Z,84.50
2023-05-01T05:36:54.430Z,84.90
2023-05-01T05:39:29.922Z,84.30
2023-05-01T05:42:01.281Z,84.20
2023-05-01T05:44:32.210Z,84.10
2023-05-01T05:47:02.416Z,83.20
2023-05-01T05:49:35.226Z,83.60
2023-05-01T05:52:05.492Z,82.90
2023-05-01T05:54:38.000Z,82.20
2023-05-01T05:57:09.975Z,81.80
2023-05-01T05:59:45.708Z,81.80
2023-05-01T06:02:17.830Z,80.60
2023-05-01T06:04:48.074Z,80.30
2023-05-01T06:07:20.271Z,79.00
2023-05-01T06:09:52.032Z,79.40
2023-05-01T06:12:22.349Z,79.80
2023-05-01T06:14:53.304Z,79.20
2023-05-01T06:17:23.525Z,79.40
2023-05-01T06:19:54.678Z,78.50
2023-05-01T06:22:25.488Z,78.70
2023-05-01T06:25:15.482Z,78.10
2023-05-01T06:27:45.740Z,77.70
2023-05-01T06:30:16.981Z,77.00
2023-05-01T06:32:47.723Z,78.40
2023-05-01T06:35:19.425Z,77.70
2023-05-01T06:37:49.670Z,76.30
2023-05-01T06:40:22.138Z,75.70
2023-05-01T06:42:52.681Z,76.40
2023-05-01T06:45:28.506Z,76.60
2023-05-01T06:47:58.638Z,75.70
2023-05-01T06:50:29.467Z,76.60
2023-05-01T06:53:04.087Z,75.60
2023-05-01T06:55:36.053Z,76.20
2023-05-01T06:58:15.997Z,75.80
2023-05-01T07:00:58.378Z,76.00
2023-05-01T07:03:32.788Z,75.60
2023-05-01T07:06:02.682Z,74.70
2023-05-01T07:08:32.648Z,72.50
2023-05-01T07:11:04.308Z,72.60
2023-05-01T07:13:34.629Z,73.30
2023-05-01T07:16:04.809Z,71.70
2023-05-01T07:18:35.290Z,72.50
2023-05-01T07:21:05.619Z,70.30
2023-05-01T07:23:36.237Z,69.00
2023-05-01T07:26:08.610Z,69.40
2023-05-01T07:28:39.451Z,69.60
2023-05-01T07:31:13.140Z,67.90
2023-05-01T07:33:43.965Z,68.10
2023-05-01T07:36:14.455Z,68.10
2023-05-01T07:38:44.738Z,67.20
2023-05-01T07:41:16.444Z,67.00
2023-05-01T07:43:46.713Z,66.60
2023-05-01T07:46:16.687Z,66.70
2023-05-01T07:48:46.867Z,65.20
2023-05-01T07:51:17.276Z,66.70
2023-05-01T07:53:47.925Z,67.00
2023-05-01T07:56:20.195Z,66.50
2023-05-01T07:58:50.084Z,65.20
2023-05-01T08:01:44.361Z,65.80
2023-05-01T08:04:15.076Z,64.40
2023-05-01T08:06:45.283Z,65.70
2023-05-01T08:09:15.105Z,65.30
2023-05-01T08:11:46.801Z,65.20
2023-05-01T08:14:18.234Z,65.80
2023-05-01T08:16:48.541Z,64.80
2023-05-01T08:19:18.998Z,64.00
2023-05-01T08:21:48.903Z,63.50
2023-05-01T08:24:19.031Z,64.20
2023-05-01T08:26:50.984Z,64.80
2023-05-01T08:29:21.052Z,60.50
2023-05-01T08:31:51.299Z,60.50
2023-05-01T08:34:21.256Z,60.40
2023-05-01T08:36:51.471Z,59.80
2023-05-01T08:39:21.576Z,58.60
2023-05-01T08:41:54.478Z,58.50
2023-05-01T08:44:27.550Z,58.30
2023-05-01T08:47:08.596Z,56.10
2023-05-01T08:49:39.974Z,56.40
2023-05-01T08:52:10.635Z,55.60
2023-05-01T08:54:44.865Z,54.40
2023-05-01T08:57:17.394Z,53.50
2023-05-01T08:59:49.663Z,54.90
2023-05-01T09:02:20.457Z,53.00
2023-05-01T09:04:51.653Z,53.20
2023-05-01T09:07:21.631Z,52.60
2023-05-01T09:09:51.671Z,52.50
2023-05-01T09:12:26.826Z,55.50
2023-05-01T09:14:58.571Z,57.50
2023-05-01T09:17:29.625Z,55.10
2023-05-01T09:19:59.730Z,54.70
2023-05-01T09:22:32.624Z,53.50
2023-05-01T09:25:02.848Z,53.20
2023-05-01T09:27:37.466Z,55.50
2023-05-01T09:30:09.832Z,55.00
2023-05-01T09:32:42.565Z,54.20
2023-05-01T09:35:15.903Z,52.50
2023-05-01T09:37:51.764Z,53.70
2023-05-01T09:40:21.694Z,50.70
2023-05-01T09:42:56.394Z,50.50
2023-05-01T09:45:28.484Z,50.10
2023-05-01T09:48:12.683Z,49.60
2023-05-01T09:50:43.403Z,50.90
2023-05-01T09:53:14.201Z,52.00
2023-05-01T09:58:31.046Z,43.60
2023-05-01T10:01:01.212Z,45.40
2023-05-01T10:03:31.539Z,44.50
2023-05-01T10:06:03.561Z,44.00
2023-05-01T10:08:49.105Z,44.70
2023-05-01T10:11:19.213Z,43.50
2023-05-01T10:14:11.321Z,44.60
2023-05-01T10:16:41.853Z,43.40
2023-05-01T10:19:13.152Z,43.40
2023-05-01T10:21:43.404Z,40.60
2023-05-01T10:24:15.635Z,42.70
2023-05-01T10:26:46.568Z,42.50
2023-05-01T10:29:18.949Z,42.30
2023-05-01T10:31:48.979Z,40.30
2023-05-01T10:34:20.611Z,41.70
2023-05-01T10:36:55.659Z,41.20
2023-05-01T10:39:36.315Z,40.60
2023-05-01T10:42:11.780Z,41.20
2023-05-01T10:44:44.505Z,43.20
2023-05-01T10:47:47.352Z,43.10
2023-05-01T10:50:18.459Z,43.60
2023-05-01T10:53:21.549Z,45.10
2023-05-01T10:55:53.130Z,46.40
2023-05-01T10:58:59.279Z,47.90
2023-05-01T11:01:38.288Z,47.60
2023-05-01T11:04:10.079Z,47.30
2023-05-01T11:06:40.365Z,46.30
2023-05-01T11:09:41.060Z,44.30
2023-05-01T11:12:12.251Z,44.60
2023-05-01T11:15:11.611Z,44.80
2023-05-01T11:20:52.987Z,40.00
2023-05-01T11:23:26.356Z,39.00
2023-05-01T11:26:09.076Z,39.70
2023-05-01T11:28:41.638Z,40.80
2023-05-01T11:31:12.437Z,39.00
2023-05-01T11:33:44.348Z,39.30
2023-05-01T11:36:14.763Z,39.00
2023-05-01T11:38:53.531Z,40.00
2023-05-01T11:41:24.185Z,40.70
2023-05-01T11:43:55.056Z,39.50
2023-05-01T11:46:29.444Z,38.20
2023-05-01T11:49:03.283Z,38.70
2023-05-01T11:51:33.815Z,39.70
2023-05-01T11:54:04.948Z,39.20
2023-05-01T11:56:37.124Z,40.40
2023-05-01T11:59:16.156Z,39.50
2023-05-01T12:01:47.497Z,37.70
2023-05-01T12:04:31.623Z,38.70
2023-05-01T12:07:02.589Z,38.90
2023-05-01T12:09:34.444Z,38.30
2023-05-01T12:12:04.773Z,40.00
2023-05-01T12:14:35.114Z,39.40
2023-05-01T12:17:05.966Z,38.10
2023-05-01T12:19:38.197Z,39.30
2023-05-01T12:22:08.945Z,38.30
2023-05-01T12:24:39.863Z,38.10
2023-05-01T12:27:10.098Z,38.70
2023-05-01T12:29:45.246Z,38.00
2023-05-01T12:32:15.570Z,38.60
2023-05-01T12:34:48.017Z,38.30
2023-05-01T12:37:18.259Z,39.40
2023-05-01T12:39:48.365Z,40.50
2023-05-01T12:42:19.620Z,39.60
2023-05-01T12:44:50.537Z,38.60
2023-05-01T12:47:20.564Z,40.10
2023-05-01T12:49:52.423Z,40.20
2023-05-01T12:52:29.599Z,40.40
2023-05-01T12:55:05.468Z,41.80
2023-05-01T12:57:35.593Z,40.90
2023-05-01T13:00:07.695Z,43.00
2023-05-01T13:02:37.891Z,42.40
2023-05-01T13:05:13.933Z,42.90
2023-05-01T13:07:51.423Z,43.20
2023-05-01T13:10:33.314Z,42.70
2023-05-01T13:13:03.432Z,42.40
2023-05-01T13:15:33.965Z,43.30
2023-05-01T13:18:07.323Z,43.30
2023-05-01T13:20:40.048Z,42.60
2023-05-01T13:23:13.651Z,42.00
2023-05-01T13:25:43.966Z,42.30
2023-05-01T13:28:21.615Z,41.70
2023-05-01T13:30:52.377Z,43.10
2023-05-01T13:33:22.501Z,42.80
2023-05-01T13:35:54.385Z,43.20
2023-05-01T13:38:25.714Z,43.40
2023-05-01T13:40:55.529Z,45.90
2023-05-01T13:43:28.003Z,50.20
2023-05-01T13:46:01.044Z,52.60
2023-05-01T13:48:33.039Z,55.80
2023-05-01T13:51:04.811Z,58.00
2023-05-01T13:53:34.723Z,58.50
2023-05-01T13:56:06.682Z,58.00
2023-05-01T13:58:37.216Z,61.10
2023-05-01T14:01:09.175Z,62.50
2023-05-01T14:03:44.164Z,67.10
2023-05-01T14:06:18.368Z,65.50
2023-05-01T14:08:49.459Z,70.60
2023-05-01T14:11:20.616Z,76.10
2023-05-01T14:13:53.999Z,78.50
2023-05-01T14:16:27.947Z,77.60
2023-05-01T14:18:58.822Z,78.30
2023-05-01T14:21:30.622Z,76.00
2023-05-01T14:24:01.049Z,77.50
2023-05-01T14:26:31.303Z,80.80
2023-05-01T14:29:01.466Z,82.60
2023-05-01T14:31:33.205Z,84.00
2023-05-01T14:34:05.704Z,87.40
2023-05-01T14:36:37.867Z,90.60
2023-05-01T14:39:07.824Z,91.20
2023-05-01T14:41:39.437Z,91.90
2023-05-01T14:44:13.140Z,92.60
2023-05-01T14:46:52.233Z,93.50
2023-05-01T14:49:26.811Z,94.10
2023-05-01T14:51:58.694Z,93.40
2023-05-01T14:54:28.774Z,94.20
2023-05-01T14:56:58.892Z,93.70
2023-05-01T14:59:28.726Z,93.90
2023-05-01T15:01:59.082Z,92.90
2023-05-01T15:04:29.344Z,92.80
2023-05-01T15:07:01.118Z,94.00
2023-05-01T15:09:31.340Z,93.60
2023-05-01T15:12:01.364Z,93.00
2023-05-01T15:14:31.484Z,94.10
2023-05-01T15:17:01.602Z,93.70
2023-05-01T15:19:31.508Z,93.50
2023-05-01T15:22:04.813Z,93.60
2023-05-01T15:24:35.165Z,93.80
2023-05-01T15:27:06.896Z,93.50
2023-05-01T15:29:38.134Z,93.70
2023-05-01T15:32:12.458Z,94.20
2023-05-01T15:34:43.296Z,93.80
2023-05-01T15:37:15.041Z,94.50
2023-05-01T15:39:45.070Z,94.10
2023-05-01T15:42:15.285Z,95.20
2023-05-01T15:44:45.308Z,95.60
2023-05-01T15:47:17.635Z,96.30
2023-05-01T15:49:47.829Z,96.70
2023-05-01T15:52:19.540Z,97.40
2023-05-01T15:54:49.964Z,97.80
2023-05-01T15:57:19.881Z,96.70
2023-05-01T15:59:54.511Z,98.00
2023-05-01T16:02:27.661Z,95.60
2023-05-01T16:04:57.834Z,96.60
2023-05-01T16:07:32.025Z,96.90
2023-05-01T16:10:02.629Z,98.80
2023-05-01T16:12:33.497Z,99.30
2023-05-01T16:15:05.052Z,99.90
2023-05-01T16:17:42.875Z,99.90
2023-05-01T16:20:14.879Z,99.90
2023-05-01T16:22:46.657Z,99.90
2023-05-01T16:25:17.103Z,99.90
2023-05-01T16:27:48.137Z,99.90
2023-05-01T16:30:18.565Z,99.90
2023-05-01T16:32:48.737Z,99.90
2023-05-01T16:35:20.247Z,99.90
2023-05-01T16:37:52.199Z,99.90
2023-05-01T16:40:23.547Z,99.90
2023-05-01T16:42:55.026Z,99.90
2023-05-01T16:45:25.100Z,99.90
2023-05-01T16:47:55.765Z,99.90
2023-05-01T16:50:26.466Z,99.90
2023-05-01T16:52:58.956Z,99.90
2023-05-01T16:55:29.274Z,99.90
2023-05-01T16:57:59.693Z,99.90
2023-05-01T17:00:30.531Z,99.90
2023-05-01T17:03:01.176Z,99.90
2023-05-01T17:05:31.081Z,99.90
2023-05-01T17:08:02.748Z,99.90
2023-05-01T17:10:33.062Z,99.90
2023-05-01T17:13:03.796Z,99.90
2023-05-01T17:15:33.901Z,99.90
2023-05-01T17:18:04.036Z,99.90
2023-05-01T17:20:34.241Z,99.90
2023-05-01T17:23:06.217Z,99.90
2023-05-01T17:25:36.639Z,99.90
2023-05-01T17:28:07.172Z,99.90
2023-05-01T17:30:37.399Z,99.90
2023-05-01T17:33:07.582Z,99.90
2023-05-01T17:35:37.641Z,99.90
2023-05-01T17:38:09.887Z,99.90
2023-05-01T17:40:39.916Z,99.90
2023-05-01T17:43:10.857Z,99.90
2023-05-01T17:45:41.023Z,99.90
2023-05-01T17:48:11.663Z,99.90
2023-05-01T17:50:43.252Z,99.90
2023-05-01T17:53:15.143Z,99.90
2023-05-01T17:55:45.441Z,99.90
2023-05-01T17:58:15.668Z,99.90
2023-05-01T18:00:46.185Z,99.90
2023-05-01T18:03:16.685Z,99.90
2023-05-01T18:05:46.744Z,99.90
2023-05-01T18:08:18.695Z,99.90
2023-05-01T18:10:48.927Z,99.90
2023-05-01T18:13:19.091Z,99.90
2023-05-01T18:15:51.771Z,99.90
2023-05-01T18:18:22.403Z,99.90
2023-05-01T18:20:52.877Z,99.90
2023-05-01T18:23:25.850Z,99.90
2023-05-01T18:25:57.820Z,99.90
2023-05-01T18:28:28.046Z,99.90
2023-05-01T18:30:58.253Z,99.90
2023-05-01T18:33:29.076Z,99.90
2023-05-01T18:35:59.215Z,99.90
2023-05-01T18:38:31.294Z,99.90
2023-05-01T18:41:01.732Z,99.90
2023-05-01T18:43:33.594Z,99.90
2023-05-01T18:46:03.742Z,99.90
2023-05-01T18:48:33.729Z,99.90
2023-05-01T18:51:08.423Z,99.90
2023-05-01T18:53:40.612Z,99.90
2023-05-01T18:56:11.332Z,99.90
2023-05-01T18:58:41.563Z,99.90
2023-05-01T19:01:11.844Z,99.90
2023-05-01T19:03:42.212Z,99.90
2023-05-01T19:06:12.338Z,98.80
2023-05-01T19:08:44.022Z,98.20
2023-05-01T19:11:14.195Z,98.90
2023-05-01T19:13:44.731Z,99.70
2023-05-01T19:16:15.044Z,99.10
2023-05-01T19:18:48.416Z,99.80
2023-05-01T19:21:18.773Z,99.90
2023-05-01T19:23:50.731Z,99.90
2023-05-01T19:26:21.494Z,99.90
2023-05-01T19:28:51.582Z,99.90
2023-05-01T19:31:21.754Z,99.90
2023-05-01T19:33:52.336Z,99.90
2023-05-01T19:36:24.083Z,99.90
2023-05-01T19:38:55.940Z,99.90
2023-05-01T19:41:27.605Z,99.90
2023-05-01T19:43:57.636Z,99.90
2023-05-01T19:46:28.480Z,99.90
2023-05-01T19:48:58.947Z,99.90
2023-05-01T19:51:29.329Z,99.90
2023-05-01T19:54:01.776Z,99.90
2023-05-01T19:56:31.741Z,99.90
2023-05-01T19:59:02.130Z,99.90
2023-05-01T20:01:33.206Z,99.90
2023-05-01T20:04:03.361Z,99.90
2023-05-01T20:06:33.675Z,99.90
2023-05-01T20:09:06.903Z,99.90
2023-05-01T20:11:36.925Z,99.90
2023-05-01T20:14:06.835Z,99.90
2023-05-01T20:16:37.194Z,99.90
2023-05-01T20:19:07.886Z,99.90
2023-05-01T20:21:38.637Z,99.90
2023-05-01T20:24:10.869Z,99.90
2023-05-01T20:26:41.118Z,99.90
2023-05-01T20:29:11.459Z,99.90
2023-05-01T20:31:41.491Z,99.90
2023-05-01T20:34:11.688Z,99.90
2023-05-01T20:36:41.797Z,99.90
2023-05-01T20:39:14.007Z,99.90
2023-05-01T20:41:44.184Z,99.90
2023-05-01T20:44:14.304Z,99.90
2023-05-01T20:46:45.594Z,99.90
2023-05-01T20:49:16.250Z,99.90
2023-05-01T20:51:46.614Z,99.90
2023-05-01T20:54:18.879Z,99.90
2023-05-01T20:56:48.912Z,99.90
2023-05-01T20:59:19.415Z,99.90
2023-05-01T21:01:50.124Z,99.90
2023-05-01T21:04:25.908Z,99.90
2023-05-01T21:06:57.327Z,99.90
2023-05-01T21:09:29.026Z,99.90
2023-05-01T21:11:59.026Z,99.90
2023-05-01T21:14:30.592Z,99.90
2023-05-01T21:17:01.002Z,99.90
2023-05-01T21:19:32.786Z,99.90
2023-05-01T21:22:03.081Z,99.90
2023-05-01T21:24:36.997Z,99.90
2023-05-01T21:27:09.271Z,99.90
2023-05-01T21:29:40.759Z,99.90
2023-05-01T21:32:11.243Z,99.90
2023-05-01T21:34:42.177Z,99.90
2023-05-01T21:37:14.545Z,99.90
2023-05-01T21:39:46.407Z,99.90
2023-05-01T21:42:17.558Z,99.90
2023-05-01T21:44:48.188Z,99.90
2023-05-01T21:47:18.600Z,99.90
2023-05-01T21:49:49.048Z,99.90
2023-05-01T21:52:20.388Z,99.90
2023-05-01T21:54:52.455Z,99.90
2023-05-01T21:57:22.678Z,99.90
2023-05-01T21:59:52.736Z,99.90
2023-05-01T22:02:23.054Z,99.90
2023-05-01T22:04:55.686Z,99.90
2023-05-01T22:07:26.428Z,99.90
2023-05-01T22:09:58.839Z,99.90
2023-05-01T22:12:29.229Z,99.90
2023-05-01T22:14:59.447Z,99.90
2023-05-01T22:17:30.627Z,99.90
2023-05-01T22:20:00.796Z,99.90
2023-05-01T22:22:31.049Z,99.90
2023-05-01T22:25:03.307Z,99.90
2023-05-01T22:27:34.036Z,99.90
2023-05-01T22:30:04.745Z,99.90
2023-05-01T22:32:34.881Z,99.90
2023-05-01T22:35:06.018Z,99.90
2023-05-01T22:37:36.467Z,99.90
2023-05-01T22:40:10.165Z,99.90
2023-05-01T22:42:40.183Z,99.90
2023-05-01T22:45:11.111Z,99.90
2023-05-01T22:47:41.489Z,99.90
2023-05-01T22:50:13.191Z,99.90
2023-05-01T22:52:44.619Z,99.90
2023-05-01T22:55:18.373Z,99.90
2023-05-01T22:57:48.364Z,99.90
2023-05-01T23:00:18.803Z,99.90
2023-05-01T23:02:52.546Z,99.90
2023-05-01T23:05:22.501Z,99.90
2023-05-01T23:07:52.938Z,99.90
2023-05-01T23:10:28.692Z,99.90
2023-05-01T23:12:58.706Z,99.90
2023-05-01T23:15:29.135Z,99.90
2023-05-01T23:17:59.929Z,99.90
2023-05-01T23:20:30.486Z,99.90
2023-05-01T23:23:01.846Z,99.90
2023-05-01T23:25:34.676Z,99.90
2023-05-01T23:28:06.485Z,99.90
2023-05-01T23:30:37.217Z,99.90
2023-05-01T23:33:07.767Z,99.90
2023-05-01T23:35:39.665Z,99.90
2023-05-01T23:38:10.434Z,99.90
2023-05-01T23:40:42.917Z,99.90
2023-05-01T23:43:14.678Z,99.90
2023-05-01T23:45:45.207Z,99.90
2023-05-01T23:48:16.237Z,99.90
2023-05-01T23:50:46.567Z,99.90
2023-05-01T23:53:16.899Z,99.90
2023-05-01T23:55:48.640Z,99.90
2023-05-01T23:58:19.383Z,99.90
